Time;durP1;ratioP1;P1;durP2;ratioP2;P2;SDS_P1;SDS_P2;PMS_P1;PMS_P2;Temp;Humidity;BMP_temperature;BMP_pressure;BME280_temperature;BME280_humidity;BME280_pressure;Samples;Min_cycle;Max_cycle;Signal;HPM_P1;HPM_P2
2023/02/17 00:00:21;;;;;;;37.40;18.30;;;;;;;1.74;67.17;100202.13;6196009;23;20031;-89
2023/02/17 00:02:46;;;;;;;31.05;17.77;;;;;;;1.87;67.26;100233.28;6194865;23;20020;-89
2023/02/17 00:05:12;;;;;;;42.88;19.23;;;;;;;1.90;67.02;100239.03;6195643;23;20050;-89
2023/02/17 00:07:38;;;;;;;32.00;18.77;;;;;;;1.78;67.18;100203.38;6195252;23;20000;-90
2023/02/17 00:10:03;;;;;;;32.15;17.15;;;;;;;1.80;67.48;100217.28;6220691;23;19996;-90
2023/02/17 00:12:29;;;;;;;30.40;15.77;;;;;;;1.73;66.57;100201.31;6171216;23;20324;-90
2023/02/17 00:14:58;;;;;;;33.58;17.00;;;;;;;1.62;67.23;100201.81;6195794;23;20004;-90
2023/02/17 00:17:24;;;;;;;32.33;17.58;;;;;;;1.60;67.05;100207.31;6195967;23;20004;-90
2023/02/17 00:19:50;;;;;;;32.97;16.77;;;;;;;1.52;66.86;100201.31;6195351;23;20066;-90
2023/02/17 00:22:15;;;;;;;39.67;17.05;;;;;;;1.38;66.99;100185.25;6220585;23;20000;-89
2023/02/17 00:24:41;;;;;;;30.38;16.42;;;;;;;1.41;66.87;100211.41;6195624;23;20062;-90
2023/02/17 00:27:07;;;;;;;31.73;17.00;;;;;;;1.41;67.02;100199.97;6247328;23;20000;-90
2023/02/17 00:29:32;;;;;;;32.03;17.63;;;;;;;1.32;66.89;100201.09;6220112;23;20393;-90
2023/02/17 00:31:58;;;;;;;30.38;17.92;;;;;;;1.25;67.51;100216.94;6196049;23;19992;-89
2023/02/17 00:34:23;;;;;;;32.58;17.38;;;;;;;1.03;67.40;100189.53;6195262;23;20020;-89
2023/02/17 00:36:49;;;;;;;35.63;17.17;;;;;;;0.89;68.13;100188.53;6195919;23;20000;-89
2023/02/17 00:39:15;;;;;;;38.60;17.63;;;;;;;0.94;67.89;100190.66;6195002;23;20000;-89
2023/02/17 00:41:40;;;;;;;30.85;16.40;;;;;;;1.03;68.05;100210.75;6171257;23;20036;-89
2023/02/17 00:44:06;;;;;;;35.72;17.95;;;;;;;0.89;68.59;100199.16;6196417;23;20434;-89
2023/02/17 00:46:31;;;;;;;30.23;17.60;;;;;;;0.91;67.95;100181.22;6197481;23;20000;-89
2023/02/17 00:48:57;;;;;;;37.47;17.58;;;;;;;0.84;68.71;100172.38;6196764;23;20000;-90
2023/02/17 00:51:25;;;;;;;31.80;17.67;;;;;;;0.73;68.91;100165.75;6196869;23;20075;-89
2023/02/17 00:53:50;;;;;;;27.75;17.23;;;;;;;0.77;68.34;100169.66;6197630;23;20075;-89
2023/02/17 00:56:16;;;;;;;32.78;16.73;;;;;;;0.94;68.41;100174.75;6197428;23;19996;-89
2023/02/17 00:58:41;;;;;;;25.63;16.63;;;;;;;0.80;68.22;100157.84;6197040;23;20015;-89
2023/02/17 01:01:08;;;;;;;27.77;17.48;;;;;;;0.67;69.10;100165.66;6171971;23;20000;-89
2023/02/17 01:03:33;;;;;;;35.22;18.30;;;;;;;0.70;69.36;100174.03;6195906;23;20014;-89
2023/02/17 01:05:59;;;;;;;38.55;18.42;;;;;;;0.78;69.05;100175.78;6171934;23;20004;-88
2023/02/17 01:08:24;;;;;;;31.27;15.90;;;;;;;0.81;68.44;100159.53;6196867;23;20028;-89
2023/02/17 01:10:50;;;;;;;33.25;16.65;;;;;;;0.86;68.67;100156.31;6196699;23;20000;-89
2023/02/17 01:13:16;;;;;;;34.60;17.00;;;;;;;0.74;68.71;100134.75;6196876;23;20027;-89
2023/02/17 01:15:43;;;;;;;37.88;17.17;;;;;;;0.85;68.59;100149.34;6196226;23;20004;-89
2023/02/17 01:18:08;;;;;;;31.98;16.60;;;;;;;0.84;69.31;100156.47;6172422;23;20004;-90
2023/02/17 01:20:37;;;;;;;40.10;19.08;;;;;;;0.58;69.24;100135.75;6172107;23;20007;-90
2023/02/17 01:23:03;;;;;;;33.30;17.05;;;;;;;0.73;68.42;100138.41;6196975;23;20008;-89
2023/02/17 01:25:29;;;;;;;31.08;17.63;;;;;;;0.74;68.91;100132.09;6196928;23;20093;-89
2023/02/17 01:27:54;;;;;;;30.17;17.33;;;;;;;0.77;69.07;100143.16;6197386;23;20407;-89
2023/02/17 01:30:23;;;;;;;33.97;16.85;;;;;;;0.83;69.19;100143.41;6197132;23;20035;-89
2023/02/17 01:32:48;;;;;;;34.17;17.02;;;;;;;0.85;68.60;100142.25;6171791;23;20015;-89
2023/02/17 01:35:14;;;;;;;38.53;17.65;;;;;;;0.92;68.48;100137.00;6170948;23;20043;-89
2023/02/17 01:37:39;;;;;;;36.28;18.05;;;;;;;1.02;68.65;100148.13;6196902;23;20324;-89
2023/02/17 01:40:08;;;;;;;36.25;17.55;;;;;;;0.81;68.02;100103.84;6197993;23;20336;-89
2023/02/17 01:42:33;;;;;;;30.42;17.13;;;;;;;0.83;68.17;100127.50;6196347;23;20000;-89
2023/02/17 01:45:14;;;;;;;32.75;17.85;;;;;;;0.89;68.50;100147.97;6171119;23;20011;-89
2023/02/17 01:47:39;;;;;;;32.53;17.48;;;;;;;0.78;68.71;100130.72;6247623;23;20067;-89
2023/02/17 01:50:05;;;;;;;36.13;17.77;;;;;;;0.65;68.70;100114.66;6196752;23;20007;-89
2023/02/17 01:52:31;;;;;;;35.63;17.38;;;;;;;0.85;68.75;100138.75;6172692;23;20079;-89
2023/02/17 01:55:02;;;;;;;35.45;18.42;;;;;;;0.83;68.59;100133.66;6196781;23;20083;-89
2023/02/17 01:57:29;;;;;;;37.92;18.10;;;;;;;0.83;67.96;100131.00;6171135;23;20457;-90
2023/02/17 01:59:54;;;;;;;29.60;17.42;;;;;;;0.83;68.23;100144.25;6171639;23;20331;-89
2023/02/17 02:02:20;;;;;;;31.60;17.55;;;;;;;0.59;68.67;100127.63;6197106;23;20058;-90
2023/02/17 02:04:46;;;;;;;33.60;17.45;;;;;;;0.57;68.89;100134.94;6197351;23;20351;-89
2023/02/17 02:07:26;;;;;;;30.73;18.00;;;;;;;0.60;69.33;100145.19;6171246;23;20027;-89
2023/02/17 02:09:53;;;;;;;36.53;18.48;;;;;;;0.54;69.24;100139.78;6196220;23;20358;-89
2023/02/17 02:12:22;;;;;;;34.55;17.90;;;;;;;0.52;69.36;100139.16;6172142;23;20071;-89
2023/02/17 02:14:54;;;;;;;31.65;17.92;;;;;;;0.50;69.52;100141.16;6197207;23;19980;-89
2023/02/17 02:17:44;;;;;;;40.33;17.50;;;;;;;0.61;69.27;100143.34;6221537;23;20000;-89
2023/02/17 02:20:31;;;;;;;31.42;18.42;;;;;;;0.63;68.79;100125.44;6248018;23;20000;-89
2023/02/17 02:23:18;;;;;;;32.83;16.60;;;;;;;0.73;68.51;100135.75;6197129;23;20034;-89
2023/02/17 02:25:52;;;;;;;30.13;16.58;;;;;;;0.82;68.48;100144.44;6225679;23;20000;-89
2023/02/17 02:28:20;;;;;;;34.42;16.65;;;;;;;0.86;67.83;100141.22;6220358;23;20011;-89
2023/02/17 02:31:01;;;;;;;26.90;15.55;;;;;;;0.86;68.86;100146.50;6221589;23;20000;-90
2023/02/17 02:33:29;;;;;;;32.58;17.48;;;;;;;0.87;68.15;100149.97;6220913;23;20394;-88
2023/02/17 02:35:59;;;;;;;30.58;16.92;;;;;;;0.81;68.40;100146.25;6196248;23;20462;-89
2023/02/17 02:38:31;;;;;;;28.48;16.73;;;;;;;0.45;68.52;100101.97;6221420;23;20007;-88
2023/02/17 02:41:01;;;;;;;23.58;15.15;;;;;;;0.64;68.39;100132.38;6171245;23;20478;-89
2023/02/17 02:43:29;;;;;;;29.73;15.15;;;;;;;0.39;68.72;100111.50;6196495;23;20004;-89
2023/02/17 02:45:55;;;;;;;31.42;16.80;;;;;;;0.60;68.09;100120.50;6196621;23;20026;-89
2023/02/17 02:48:20;;;;;;;33.10;16.83;;;;;;;0.54;68.70;100132.69;6196276;23;19984;-87
2023/02/17 02:50:58;;;;;;;30.83;16.27;;;;;;;0.71;68.69;100151.84;6194287;23;20442;-88
2023/02/17 02:53:50;;;;;;;31.70;16.20;;;;;;;0.63;68.53;100120.16;6247761;23;20001;-89
2023/02/17 02:56:24;;;;;;;31.35;16.45;;;;;;;0.78;68.23;100152.72;6222161;23;20008;-89
2023/02/17 02:59:17;;;;;;;30.17;15.82;;;;;;;0.41;68.53;100113.94;6221026;23;20000;-89
2023/02/17 03:02:15;;;;;;;29.50;16.80;;;;;;;0.57;68.44;100140.25;6224906;23;20000;-89
2023/02/17 03:04:50;;;;;;;28.77;16.50;;;;;;;0.64;69.04;100158.06;6223907;23;20008;-89
2023/02/17 03:07:23;;;;;;;32.90;16.73;;;;;;;0.36;68.44;100122.44;6197114;23;20000;-90
2023/02/17 03:09:50;;;;;;;32.80;17.50;;;;;;;0.09;68.74;100107.19;6196066;23;20077;-89
2023/02/17 03:12:15;;;;;;;33.05;17.27;;;;;;;0.16;69.54;100140.69;6170915;23;20419;-90
2023/02/17 03:14:40;;;;;;;32.78;17.27;;;;;;;0.01;69.74;100126.63;6195916;23;20040;-89
2023/02/17 03:17:06;;;;;;;28.13;17.27;;;;;;;-0.07;70.35;100119.59;6194876;23;20030;-90
2023/02/17 03:19:31;;;;;;;32.90;16.30;;;;;;;-0.14;69.98;100099.34;6195632;23;19995;-89
2023/02/17 03:22:08;;;;;;;31.05;16.77;;;;;;;0.17;69.91;100150.31;6196300;23;20004;-89
2023/02/17 03:24:34;;;;;;;32.00;16.38;;;;;;;0.28;68.70;100154.31;6220916;23;20007;-90
2023/02/17 03:26:59;;;;;;;31.35;16.52;;;;;;;0.09;68.74;100115.97;6194524;23;20000;-89
2023/02/17 03:29:25;;;;;;;29.33;15.35;;;;;;;0.39;68.67;100158.34;6171007;23;20008;-90
2023/02/17 03:31:50;;;;;;;37.40;16.33;;;;;;;0.18;68.66;100135.22;6195828;23;20008;-90
2023/02/17 03:34:16;;;;;;;26.92;16.85;;;;;;;0.26;69.70;100136.97;6170837;23;20004;-90
2023/02/17 03:36:41;;;;;;;33.85;17.35;;;;;;;0.10;69.03;100122.06;6170104;23;20066;-90
2023/02/17 03:39:07;;;;;;;33.75;16.80;;;;;;;0.06;69.79;100147.25;6171453;23;20000;-90
2023/02/17 03:41:32;;;;;;;33.13;16.08;;;;;;;0.02;69.19;100143.34;6171183;23;20000;-90
2023/02/17 03:43:57;;;;;;;35.15;16.75;;;;;;;-0.06;70.07;100146.91;6196867;23;20001;-90
2023/02/17 03:46:23;;;;;;;36.05;15.85;;;;;;;-0.05;70.09;100154.63;6169790;23;20023;-90
2023/02/17 03:48:48;;;;;;;30.38;16.00;;;;;;;-0.06;69.66;100145.06;6195909;23;20023;-89
2023/02/17 03:51:18;;;;;;;34.72;17.55;;;;;;;0.05;69.29;100143.00;6196280;23;19983;-90
2023/02/17 03:53:44;;;;;;;30.95;16.15;;;;;;;0.30;69.07;100167.38;6196433;23;20026;-90
2023/02/17 03:56:10;;;;;;;29.80;15.73;;;;;;;0.17;69.23;100123.81;6194452;23;20012;-89
2023/02/17 03:58:36;;;;;;;27.83;15.68;;;;;;;0.24;68.71;100136.34;6195623;23;20010;-90
2023/02/17 04:01:01;;;;;;;33.85;16.90;;;;;;;0.48;68.65;100159.06;6171035;23;20004;-89
2023/02/17 04:03:27;;;;;;;28.10;16.55;;;;;;;0.60;68.13;100162.91;6220724;23;20051;-90
2023/02/17 04:05:53;;;;;;;32.72;15.90;;;;;;;0.40;68.48;100138.81;6195369;23;20341;-89
2023/02/17 04:08:19;;;;;;;31.70;16.25;;;;;;;0.43;68.71;100127.00;6196685;23;20015;-89
2023/02/17 04:10:45;;;;;;;29.95;16.95;;;;;;;0.37;68.21;100134.69;6171256;23;20000;-89
2023/02/17 04:13:18;;;;;;;30.33;17.80;;;;;;;0.15;69.07;100154.94;6195141;23;20069;-89
2023/02/17 04:15:43;;;;;;;40.13;19.20;;;;;;;0.01;68.57;100137.22;6195135;23;20000;-90
2023/02/17 04:18:09;;;;;;;33.80;16.85;;;;;;;-0.06;69.02;100146.91;6195224;23;20394;-89
2023/02/17 04:20:34;;;;;;;30.25;17.67;;;;;;;-0.21;69.29;100137.09;6221588;23;19996;-88
2023/02/17 04:22:59;;;;;;;33.72;19.45;;;;;;;-0.09;69.16;100165.78;6246658;23;20081;-88
2023/02/17 04:25:25;;;;;;;36.55;19.35;;;;;;;-0.24;69.85;100149.88;6197779;23;20008;-89
2023/02/17 04:27:50;;;;;;;29.50;16.80;;;;;;;-0.32;69.81;100153.38;6171984;23;20018;-89
2023/02/17 04:30:16;;;;;;;34.80;18.05;;;;;;;-0.15;69.46;100148.78;6172542;23;20007;-88
2023/02/17 04:32:41;;;;;;;37.45;17.52;;;;;;;-0.17;69.44;100128.78;6196510;23;20027;-89
2023/02/17 04:35:07;;;;;;;37.80;18.02;;;;;;;-0.13;69.07;100135.38;6196456;23;20019;-88
2023/02/17 04:37:32;;;;;;;33.70;16.20;;;;;;;0.10;68.92;100157.31;6221183;23;20427;-88
2023/02/17 04:39:58;;;;;;;33.95;17.60;;;;;;;-0.15;69.53;100132.91;6197399;23;20023;-89
2023/02/17 04:42:26;;;;;;;28.30;17.00;;;;;;;-0.25;69.93;100133.16;6171471;23;20437;-88
2023/02/17 04:44:52;;;;;;;31.38;17.08;;;;;;;-0.03;69.58;100150.00;6222143;23;20448;-89
2023/02/17 04:47:17;;;;;;;34.67;17.83;;;;;;;0.07;69.00;100135.69;6171883;23;20000;-88
2023/02/17 04:49:43;;;;;;;30.67;16.90;;;;;;;0.17;68.76;100150.31;6196655;23;19996;-88
2023/02/17 04:52:08;;;;;;;39.25;16.75;;;;;;;0.08;69.10;100138.13;6245978;23;20000;-90
2023/02/17 04:54:34;;;;;;;32.88;16.98;;;;;;;0.09;68.72;100154.84;6172194;23;20007;-89
2023/02/17 04:56:59;;;;;;;30.90;17.35;;;;;;;0.13;69.03;100156.97;6196539;23;20071;-89
2023/02/17 04:59:24;;;;;;;37.58;19.02;;;;;;;0.34;69.14;100189.84;6196685;23;19996;-89
2023/02/17 05:01:51;;;;;;;32.72;17.77;;;;;;;0.36;68.55;100164.00;6221261;23;20394;-90
2023/02/17 05:10:07;;;;;;;33.28;16.60;;;;;;;0.46;68.62;100201.66;6248657;22;20000;-96
2023/02/17 05:35:25;;;;;;;36.05;17.08;;;;;;;0.52;67.60;100214.19;6182386;22;21148;-94
2023/02/17 05:40:35;;;;;;;28.83;16.33;;;;;;;0.22;68.21;100201.91;6196327;22;20027;-96
2023/02/17 05:49:04;;;;;;;28.67;17.80;;;;;;;0.23;68.05;100188.47;6238036;22;20059;-96
2023/02/17 05:52:15;;;;;;;27.05;14.93;;;;;;;0.41;67.93;100209.31;6235963;23;20009;-95
2023/02/17 05:55:03;;;;;;;27.05;15.10;;;;;;;0.32;68.43;100189.22;6215055;22;20163;-95
2023/02/17 05:57:33;;;;;;;32.00;16.35;;;;;;;0.40;67.45;100170.59;6240986;22;20000;-96
2023/02/17 05:59:59;;;;;;;28.75;14.80;;;;;;;0.79;67.52;100201.28;6245685;22;19999;-95
2023/02/17 06:05:58;;;;;;;25.38;15.90;;;;;;;0.70;67.21;100181.19;6298611;22;20030;-95
2023/02/17 06:08:25;;;;;;;31.25;16.30;;;;;;;0.91;66.33;100199.78;6264999;22;20000;-95
2023/02/17 06:10:58;;;;;;;33.35;17.95;;;;;;;1.13;66.27;100218.44;6245664;22;20051;-95
2023/02/17 06:13:28;;;;;;;27.65;15.63;;;;;;;1.09;66.37;100212.66;6295867;22;20008;-96
2023/02/17 06:18:34;;;;;;;38.95;22.75;;;;;;;0.82;67.84;100206.22;6234441;22;20336;-96
2023/02/17 06:21:00;;;;;;;33.47;16.55;;;;;;;1.05;67.22;100210.56;6208406;23;20004;-93
2023/02/17 06:23:33;;;;;;;33.90;18.10;;;;;;;1.29;66.80;100226.19;6208910;23;19996;-94
2023/02/17 06:26:18;;;;;;;35.17;19.75;;;;;;;1.31;65.73;100194.16;6236448;23;20000;-94
2023/02/17 06:28:45;;;;;;;31.38;18.50;;;;;;;1.64;65.71;100202.47;6240378;23;20026;-95
2023/02/17 06:31:12;;;;;;;35.88;18.77;;;;;;;2.07;64.72;100238.78;6234322;23;20003;-94
2023/02/17 06:33:38;;;;;;;37.30;19.20;;;;;;;2.13;64.71;100225.53;6205435;23;20008;-94
2023/02/17 06:36:06;;;;;;;35.30;18.92;;;;;;;2.24;63.96;100208.25;6203420;23;20004;-95
2023/02/17 06:38:34;;;;;;;32.17;17.85;;;;;;;2.35;63.45;100205.09;6209709;23;20057;-95
2023/02/17 06:41:03;;;;;;;35.72;17.77;;;;;;;2.62;62.56;100219.34;6212501;23;20015;-94
2023/02/17 06:43:28;;;;;;;35.42;17.80;;;;;;;2.65;62.84;100222.66;6207456;23;20015;-91
2023/02/17 06:46:01;;;;;;;33.22;17.75;;;;;;;2.82;62.31;100246.06;6203669;23;20004;-94
2023/02/17 06:48:35;;;;;;;38.78;19.63;;;;;;;2.59;62.70;100218.91;6209394;23;20007;-95
2023/02/17 06:53:47;;;;;;;29.95;14.70;;;;;;;2.71;60.63;100259.09;6226285;22;20047;-95
2023/02/17 06:56:18;;;;;;;37.17;16.42;;;;;;;2.84;61.58;100245.84;6201896;23;20017;-93
2023/02/17 06:58:44;;;;;;;31.45;16.92;;;;;;;3.08;60.98;100238.44;6169097;23;20039;-93
2023/02/17 07:01:18;;;;;;;40.65;17.02;;;;;;;3.17;61.12;100226.59;6194439;23;20000;-95
2023/02/17 07:03:50;;;;;;;30.15;16.35;;;;;;;3.31;60.37;100240.78;6203251;22;20037;-95
2023/02/17 07:06:16;;;;;;;32.80;17.65;;;;;;;3.23;60.30;100231.91;6218961;23;20005;-94
2023/02/17 07:08:41;;;;;;;46.75;28.27;;;;;;;3.13;60.81;100212.03;6192022;23;20007;-92
2023/02/17 07:11:08;;;;;;;46.70;20.83;;;;;;;3.51;60.22;100240.81;6196986;23;20000;-94
2023/02/17 07:13:36;;;;;;;32.03;18.02;;;;;;;3.54;59.91;100227.13;6198155;23;20004;-94
2023/02/17 07:16:02;;;;;;;41.78;20.17;;;;;;;3.68;59.74;100220.81;6171108;23;20091;-90
2023/02/17 07:18:27;;;;;;;38.92;20.92;;;;;;;3.60;59.54;100219.13;6196092;23;20411;-91
2023/02/17 07:20:59;;;;;;;46.35;22.33;;;;;;;3.51;59.29;100206.19;6204640;23;20019;-94
2023/02/17 07:27:45;;;;;;;34.50;19.80;;;;;;;4.02;58.95;100262.44;6200687;23;20085;-94
2023/02/17 07:30:13;;;;;;;51.80;22.92;;;;;;;3.95;58.00;100231.50;6170102;23;20039;-94
2023/02/17 07:32:44;;;;;;;48.78;24.23;;;;;;;3.87;58.83;100221.84;6175903;23;20069;-96
2023/02/17 07:40:54;;;;;;;41.42;20.85;;;;;;;4.80;56.78;100268.97;6252296;22;20044;-94
2023/02/17 07:43:21;;;;;;;36.35;20.60;;;;;;;4.72;56.57;100229.19;6209326;23;20012;-94
2023/02/17 07:45:47;;;;;;;40.58;20.75;;;;;;;4.96;56.62;100243.69;6206422;23;20087;-95
2023/02/17 07:48:14;;;;;;;42.08;23.25;;;;;;;5.13;55.42;100266.22;6207072;23;20000;-96
2023/02/17 07:51:11;;;;;;;41.80;22.98;;;;;;;5.27;55.12;100261.63;6210313;23;19996;-96
2023/02/17 07:57:02;;;;;;;54.85;23.48;;;;;;;5.54;55.13;100250.84;6207198;23;20044;-94
2023/02/17 07:59:29;;;;;;;48.90;21.23;;;;;;;5.56;54.99;100252.28;6175734;22;20031;-95
2023/02/17 08:02:06;;;;;;;44.47;21.35;;;;;;;5.73;54.04;100255.28;6213371;23;20016;-96
2023/02/17 08:04:33;;;;;;;48.35;21.95;;;;;;;6.01;54.46;100270.13;6196332;23;19996;-95
2023/02/17 08:13:20;;;;;;;59.33;25.45;;;;;;;6.25;53.76;100239.91;6217169;23;20011;-93
2023/02/17 08:15:52;;;;;;;65.85;26.45;;;;;;;6.51;53.41;100256.75;6235296;23;19992;-95
2023/02/17 08:18:18;;;;;;;45.03;21.45;;;;;;;6.50;52.93;100233.75;6189156;23;20021;-96
2023/02/17 08:20:56;;;;;;;65.35;24.15;;;;;;;6.62;52.88;100229.28;6189293;23;20138;-95
2023/02/17 08:23:25;;;;;;;49.88;23.50;;;;;;;6.80;52.50;100246.41;6216048;23;20004;-96
2023/02/17 08:26:26;;;;;;;64.82;24.90;;;;;;;6.56;52.72;100234.72;6216836;23;20355;-96
2023/02/17 08:28:52;;;;;;;68.80;29.90;;;;;;;6.80;52.30;100243.72;6110079;23;20054;-94
2023/02/17 08:31:20;;;;;;;50.25;23.52;;;;;;;6.99;51.92;100247.22;6087825;23;19997;-95
2023/02/17 08:33:49;;;;;;;46.08;23.38;;;;;;;6.90;51.78;100241.34;6086483;23;20006;-96
2023/02/17 08:36:14;;;;;;;56.78;26.17;;;;;;;7.11;51.29;100258.81;6108505;23;20008;-95
2023/02/17 08:38:40;;;;;;;54.90;24.00;;;;;;;7.02;51.71;100241.44;6175257;23;19996;-95
2023/02/17 08:41:30;;;;;;;102.53;50.28;;;;;;;7.14;52.19;100238.81;6206262;23;20083;-96
2023/02/17 08:44:01;;;;;;;39.73;21.47;;;;;;;7.35;50.66;100224.97;6259882;23;20020;-96
2023/02/17 08:46:37;;;;;;;42.22;19.60;;;;;;;7.46;49.56;100226.06;6213663;23;20011;-96
2023/02/17 08:49:03;;;;;;;31.70;16.77;;;;;;;7.56;49.46;100233.56;6235778;23;20019;-95
2023/02/17 08:51:32;;;;;;;40.17;18.08;;;;;;;7.61;49.73;100234.50;6213008;23;20188;-95
2023/02/17 08:53:59;;;;;;;34.13;16.70;;;;;;;8.01;49.14;100252.69;6206158;23;20422;-93
2023/02/17 08:56:25;;;;;;;37.33;21.58;;;;;;;8.11;48.91;100222.63;6175127;23;20035;-94
2023/02/17 08:58:51;;;;;;;11.32;5.95;;;;;;;8.55;44.11;100225.00;6201746;23;20039;-94
2023/02/17 09:01:19;;;;;;;11.10;5.35;;;;;;;8.89;43.21;100215.28;6209858;23;20004;-94
2023/02/17 09:03:46;;;;;;;12.75;5.35;;;;;;;9.39;40.99;100214.69;6214943;23;20019;-94
2023/02/17 09:06:12;;;;;;;9.52;5.20;;;;;;;9.95;39.61;100232.91;6193492;23;20026;-96
2023/02/17 09:08:39;;;;;;;10.63;4.43;;;;;;;10.11;39.62;100210.56;6216904;23;20000;-95
2023/02/17 09:11:07;;;;;;;7.70;4.53;;;;;;;10.48;38.40;100232.44;6217404;23;20012;-96
2023/02/17 09:13:33;;;;;;;7.80;4.13;;;;;;;10.67;37.16;100218.72;6213979;23;20070;-92
2023/02/17 09:15:59;;;;;;;5.97;3.85;;;;;;;10.98;35.86;100214.53;6198980;23;20099;-95
2023/02/17 09:18:24;;;;;;;6.68;3.95;;;;;;;11.16;35.52;100202.59;6201790;23;20007;-94
2023/02/17 09:20:50;;;;;;;7.00;4.30;;;;;;;11.43;36.26;100224.22;6202090;23;20007;-93
2023/02/17 09:23:16;;;;;;;9.00;4.88;;;;;;;11.59;35.18;100209.00;6201347;23;20054;-94
2023/02/17 09:25:42;;;;;;;11.15;4.10;;;;;;;11.91;33.90;100230.69;6198472;23;20320;-92
2023/02/17 09:28:07;;;;;;;5.28;3.30;;;;;;;11.96;33.23;100199.41;6200137;23;20000;-92
2023/02/17 09:30:33;;;;;;;9.07;3.85;;;;;;;12.13;33.58;100208.19;6198973;23;19992;-93
2023/02/17 09:32:58;;;;;;;11.05;4.43;;;;;;;12.34;33.00;100209.13;6199464;23;20074;-93
2023/02/17 09:35:24;;;;;;;14.55;5.80;;;;;;;12.41;34.11;100188.13;6200909;23;20003;-94
2023/02/17 09:37:52;;;;;;;7.10;3.88;;;;;;;12.57;32.65;100201.72;6198789;23;20481;-93
2023/02/17 09:40:23;;;;;;;7.03;4.20;;;;;;;12.62;31.52;100183.66;6198229;23;20342;-94
2023/02/17 09:42:49;;;;;;;5.73;3.97;;;;;;;12.90;31.40;100192.44;6200359;23;20442;-92
2023/02/17 09:45:23;;;;;;;6.95;3.70;;;;;;;13.09;30.29;100203.59;6197717;23;20235;-94
2023/02/17 09:47:53;;;;;;;5.68;3.50;;;;;;;13.07;29.90;100178.72;6201254;23;20037;-92
2023/02/17 09:50:48;;;;;;;7.60;3.42;;;;;;;13.31;30.06;100206.97;6201651;23;20079;-95
2023/02/17 09:53:52;;;;;;;5.50;2.85;;;;;;;13.41;29.80;100208.06;6250748;23;20000;-95
2023/02/17 09:56:22;;;;;;;7.43;4.53;;;;;;;13.27;29.53;100181.50;6200066;23;20027;-92
2023/02/17 09:58:52;;;;;;;8.15;4.05;;;;;;;13.30;29.46;100181.00;6202049;23;20068;-93
2023/02/17 10:01:25;;;;;;;7.78;4.28;;;;;;;13.28;29.70;100164.19;6205810;23;20007;-95
2023/02/17 10:03:55;;;;;;;6.32;3.50;;;;;;;13.38;29.22;100178.84;6177038;23;20015;-96
2023/02/17 10:06:39;;;;;;;6.07;3.40;;;;;;;13.43;29.48;100174.25;6181443;23;20071;-95
2023/02/17 10:09:19;;;;;;;10.40;5.97;;;;;;;13.56;29.20;100181.03;6209313;23;20442;-94
2023/02/17 10:12:03;;;;;;;9.35;3.75;;;;;;;13.75;29.12;100194.88;6205175;23;20362;-95
2023/02/17 10:14:34;;;;;;;6.90;4.20;;;;;;;13.70;29.28;100168.63;6225720;23;20004;-94
2023/02/17 10:17:06;;;;;;;8.85;3.80;;;;;;;13.84;29.31;100163.50;6199668;23;20118;-94
2023/02/17 10:19:42;;;;;;;6.25;3.38;;;;;;;13.98;28.51;100165.66;6202689;23;20083;-93
2023/02/17 10:22:13;;;;;;;6.53;3.67;;;;;;;13.98;28.60;100146.69;6248640;23;20000;-94
2023/02/17 10:24:39;;;;;;;5.65;3.10;;;;;;;13.98;27.41;100152.09;6198512;23;20000;-96
2023/02/17 10:27:14;;;;;;;8.25;3.13;;;;;;;14.21;27.89;100164.25;6224112;23;20398;-93
2023/02/17 10:30:03;;;;;;;5.85;3.20;;;;;;;14.33;28.41;100154.75;6249571;23;20655;-92
2023/02/17 10:32:31;;;;;;;6.25;3.17;;;;;;;14.43;27.91;100151.22;6249301;23;20015;-95
2023/02/17 10:35:00;;;;;;;6.22;3.30;;;;;;;14.56;27.61;100152.56;6199484;23;20011;-94
2023/02/17 10:37:32;;;;;;;6.70;3.10;;;;;;;14.46;28.02;100147.16;6253538;23;20075;-92
2023/02/17 10:40:01;;;;;;;9.70;3.63;;;;;;;14.47;27.26;100143.38;6223920;23;20342;-94
2023/02/17 10:42:28;;;;;;;6.60;3.33;;;;;;;14.55;27.78;100143.63;6224646;23;19996;-93
2023/02/17 10:45:05;;;;;;;5.35;2.60;;;;;;;14.59;27.41;100145.78;6222830;23;20000;-94
2023/02/17 10:47:31;;;;;;;6.13;3.83;;;;;;;14.52;27.34;100124.38;6198750;23;20082;-93
2023/02/17 10:49:57;;;;;;;7.28;3.53;;;;;;;14.67;27.29;100128.94;6198622;23;19996;-95
2023/02/17 10:52:31;;;;;;;7.22;3.42;;;;;;;14.73;27.56;100134.09;6208180;23;19995;-95
2023/02/17 10:55:02;;;;;;;6.68;3.08;;;;;;;14.90;27.79;100136.47;6206090;23;19996;-96
2023/02/17 10:57:37;;;;;;;9.10;3.17;;;;;;;14.95;27.50;100143.75;6236584;23;19995;-96
2023/02/17 11:00:04;;;;;;;7.07;3.85;;;;;;;14.87;27.40;100126.16;6186152;23;20012;-94
2023/02/17 11:02:30;;;;;;;10.25;4.07;;;;;;;14.99;27.57;100135.88;6210983;22;20060;-95
2023/02/17 11:04:58;;;;;;;7.65;3.15;;;;;;;14.86;27.73;100108.28;6243014;22;19995;-95
2023/02/17 11:07:58;;;;;;;6.63;3.08;;;;;;;14.93;28.12;100097.94;6240182;23;19996;-95
2023/02/17 11:10:40;;;;;;;7.18;3.08;;;;;;;15.07;27.82;100105.47;6168939;23;20020;-94
2023/02/17 11:13:38;;;;;;;8.15;4.32;;;;;;;15.12;27.93;100097.28;6241029;22;20004;-96
2023/02/17 11:16:30;;;;;;;8.77;3.15;;;;;;;15.20;27.59;100099.41;6221197;22;20015;-96
2023/02/17 11:19:00;;;;;;;7.87;3.70;;;;;;;15.13;27.58;100078.03;6191394;22;19993;-96
2023/02/17 11:30:27;;;;;;;6.45;3.47;;;;;;;15.18;28.22;100115.16;6179723;22;20081;-96
2023/02/17 11:32:54;;;;;;;8.15;4.22;;;;;;;15.19;28.22;100083.41;6211408;23;20004;-94
2023/02/17 11:35:34;;;;;;;4.93;3.10;;;;;;;15.46;28.27;100100.03;6149690;23;20040;-96
2023/02/17 11:38:29;;;;;;;6.25;3.60;;;;;;;15.41;27.87;100074.84;6231216;22;20072;-94
2023/02/17 11:41:02;;;;;;;5.80;3.20;;;;;;;15.68;27.84;100091.44;6211017;23;20004;-94
2023/02/17 11:43:28;;;;;;;5.72;3.40;;;;;;;15.63;27.12;100075.19;6208790;23;20076;-95
2023/02/17 11:48:54;;;;;;;7.65;3.33;;;;;;;15.88;27.32;100095.91;6230031;22;20017;-93
2023/02/17 11:52:06;;;;;;;11.15;3.15;;;;;;;15.95;27.37;100088.22;6208293;23;20009;-95
2023/02/17 11:54:56;;;;;;;6.80;3.40;;;;;;;15.98;26.92;100091.47;6113302;23;19995;-95
2023/02/17 11:58:10;;;;;;;5.50;2.88;;;;;;;16.07;27.36;100089.75;6113754;23;19982;-95
2023/02/17 12:00:45;;;;;;;10.27;3.55;;;;;;;15.95;27.21;100090.16;6109208;23;20018;-95
2023/02/17 12:03:42;;;;;;;9.00;3.10;;;;;;;15.91;27.88;100094.53;6105339;23;20030;-94
2023/02/17 12:06:34;;;;;;;6.95;3.30;;;;;;;15.76;28.49;100085.44;6074402;23;20014;-93
2023/02/17 12:09:15;;;;;;;8.10;4.53;;;;;;;15.68;28.89;100074.34;6134826;22;20028;-95
2023/02/17 12:11:44;;;;;;;10.67;5.63;;;;;;;15.82;29.15;100079.97;6169874;23;20055;-95
2023/02/17 12:14:47;;;;;;;15.13;8.20;;;;;;;15.91;29.19;100089.09;6194644;23;20060;-94
2023/02/17 12:17:54;;;;;;;7.28;4.10;;;;;;;15.87;28.85;100083.41;6193752;23;20031;-94
2023/02/17 12:20:44;;;;;;;5.97;3.67;;;;;;;15.59;29.48;100078.78;6179318;23;20420;-95
2023/02/17 12:23:47;;;;;;;6.45;3.80;;;;;;;15.66;29.98;100085.47;6197842;23;20009;-95
2023/02/17 12:26:24;;;;;;;7.63;4.55;;;;;;;15.56;30.61;100064.69;6196714;23;20063;-93
2023/02/17 12:29:08;;;;;;;14.88;5.00;;;;;;;15.56;30.85;100072.81;6172292;23;20032;-95
2023/02/17 12:32:11;;;;;;;7.70;4.55;;;;;;;15.61;31.28;100076.59;6197004;23;19996;-95
2023/02/17 12:34:58;;;;;;;11.80;4.45;;;;;;;15.41;31.91;100045.78;6195977;23;20370;-95
2023/02/17 12:37:30;;;;;;;11.05;6.70;;;;;;;15.53;31.84;100059.00;6194243;23;20032;-95
2023/02/17 12:40:29;;;;;;;7.43;4.70;;;;;;;15.46;31.54;100051.19;6174602;23;20009;-95
2023/02/17 12:43:23;;;;;;;8.70;4.57;;;;;;;15.55;31.00;100062.25;6186471;23;20009;-92
2023/02/17 12:45:49;;;;;;;7.63;3.83;;;;;;;15.45;30.15;100049.56;6159242;23;20096;-95
2023/02/17 12:48:24;;;;;;;8.75;4.60;;;;;;;15.48;30.20;100049.00;6112401;23;20002;-94
2023/02/17 12:50:59;;;;;;;5.90;4.03;;;;;;;15.54;30.31;100060.59;6136339;23;20113;-95
2023/02/17 12:53:49;;;;;;;9.57;4.03;;;;;;;15.57;29.88;100074.44;6161550;23;20005;-94
2023/02/17 12:56:46;;;;;;;8.50;3.83;;;;;;;15.53;30.00;100059.81;6135969;23;20064;-96